sensor_id;sensor_type;location;lat;lon;timestamp;temperature;humidity
46309;DHT22;32037;50.820;6.494;2022-08-07T00:00:51;24.90;39.40
46309;DHT22;32037;50.820;6.494;2022-08-07T00:03:20;24.90;39.30
46309;DHT22;32037;50.820;6.494;2022-08-07T00:05:51;24.80;39.20
46309;DHT22;32037;50.820;6.494;2022-08-07T00:08:20;24.80;39.20
46309;DHT22;32037;50.820;6.494;2022-08-07T00:10:50;24.90;39.40
46309;DHT22;32037;50.820;6.494;2022-08-07T00:13:24;24.80;39.20
46309;DHT22;32037;50.820;6.494;2022-08-07T00:15:53;24.90;39.30
46309;DHT22;32037;50.820;6.494;2022-08-07T00:18:23;24.90;39.30
46309;DHT22;32037;50.820;6.494;2022-08-07T00:20:52;24.80;39.20
46309;DHT22;32037;50.820;6.494;2022-08-07T00:23:24;24.80;39.20
46309;DHT22;32037;50.820;6.494;2022-08-07T00:25:57;24.80;39.20
46309;DHT22;32037;50.820;6.494;2022-08-07T00:28:39;24.80;39.20
46309;DHT22;32037;50.820;6.494;2022-08-07T00:31:21;24.80;39.20
46309;DHT22;32037;50.820;6.494;2022-08-07T00:34:03;24.80;39.20
46309;DHT22;32037;50.820;6.494;2022-08-07T00:36:35;24.80;39.20
46309;DHT22;32037;50.820;6.494;2022-08-07T00:39:10;24.80;39.20
46309;DHT22;32037;50.820;6.494;2022-08-07T00:41:56;24.80;39.20
46309;DHT22;32037;50.820;6.494;2022-08-07T00:44:31;24.80;39.20
46309;DHT22;32037;50.820;6.494;2022-08-07T00:46:59;24.80;39.20
46309;DHT22;32037;50.820;6.494;2022-08-07T00:49:27;24.80;39.20
46309;DHT22;32037;50.820;6.494;2022-08-07T00:52:16;24.80;39.20
46309;DHT22;32037;50.820;6.494;2022-08-07T00:54:46;24.80;39.20
46309;DHT22;32037;50.820;6.494;2022-08-07T00:57:22;24.80;39.20
46309;DHT22;32037;50.820;6.494;2022-08-07T00:59:52;24.80;39.30
46309;DHT22;32037;50.820;6.494;2022-08-07T01:02:21;24.80;39.20
46309;DHT22;32037;50.820;6.494;2022-08-07T01:04:56;24.80;39.20
46309;DHT22;32037;50.820;6.494;2022-08-07T01:07:26;24.80;39.20
46309;DHT22;32037;50.820;6.494;2022-08-07T01:09:57;24.80;39.20
46309;DHT22;32037;50.820;6.494;2022-08-07T01:12:39;24.80;39.20
46309;DHT22;32037;50.820;6.494;2022-08-07T01:15:20;24.80;39.20
46309;DHT22;32037;50.820;6.494;2022-08-07T01:18:02;24.80;39.20
46309;DHT22;32037;50.820;6.494;2022-08-07T01:20:42;24.70;39.10
46309;DHT22;32037;50.820;6.494;2022-08-07T01:23:27;24.80;39.20
46309;DHT22;32037;50.820;6.494;2022-08-07T01:26:07;24.70;39.10
46309;DHT22;32037;50.820;6.494;2022-08-07T01:28:42;24.70;39.10
46309;DHT22;32037;50.820;6.494;2022-08-07T01:31:15;24.70;39.10
46309;DHT22;32037;50.820;6.494;2022-08-07T01:33:46;24.70;39.20
46309;DHT22;32037;50.820;6.494;2022-08-07T01:36:27;24.70;39.20
46309;DHT22;32037;50.820;6.494;2022-08-07T01:39:04;24.70;39.40
46309;DHT22;32037;50.820;6.494;2022-08-07T01:41:39;24.70;39.40
46309;DHT22;32037;50.820;6.494;2022-08-07T01:44:30;24.70;39.50
46309;DHT22;32037;50.820;6.494;2022-08-07T01:47:01;24.70;39.30
46309;DHT22;32037;50.820;6.494;2022-08-07T01:49:50;24.70;39.10
46309;DHT22;32037;50.820;6.494;2022-08-07T01:52:23;24.70;39.10
46309;DHT22;32037;50.820;6.494;2022-08-07T01:54:56;24.70;39.10
46309;DHT22;32037;50.820;6.494;2022-08-07T01:57:29;24.70;39.10
46309;DHT22;32037;50.820;6.494;2022-08-07T02:00:21;24.70;39.30
46309;DHT22;32037;50.820;6.494;2022-08-07T02:02:57;24.70;39.50
46309;DHT22;32037;50.820;6.494;2022-08-07T02:05:51;24.70;39.50
46309;DHT22;32037;50.820;6.494;2022-08-07T02:08:27;24.70;39.40
46309;DHT22;32037;50.820;6.494;2022-08-07T02:10:59;24.70;39.40
46309;DHT22;32037;50.820;6.494;2022-08-07T02:13:31;24.70;39.40
46309;DHT22;32037;50.820;6.494;2022-08-07T02:16:22;24.70;39.60
46309;DHT22;32037;50.820;6.494;2022-08-07T02:19:01;24.70;39.60
46309;DHT22;32037;50.820;6.494;2022-08-07T02:21:52;24.70;39.50
46309;DHT22;32037;50.820;6.494;2022-08-07T02:24:26;24.60;39.60
46309;DHT22;32037;50.820;6.494;2022-08-07T02:26:58;24.60;39.80
46309;DHT22;32037;50.820;6.494;2022-08-07T02:29:31;24.60;39.80
46309;DHT22;32037;50.820;6.494;2022-08-07T02:32:09;24.60;39.70
46309;DHT22;32037;50.820;6.494;2022-08-07T02:34:39;24.60;39.80
46309;DHT22;32037;50.820;6.494;2022-08-07T02:37:18;24.60;39.70
46309;DHT22;32037;50.820;6.494;2022-08-07T02:39:47;24.60;39.70
46309;DHT22;32037;50.820;6.494;2022-08-07T02:42:38;24.60;39.70
46309;DHT22;32037;50.820;6.494;2022-08-07T02:45:10;24.60;39.50
46309;DHT22;32037;50.820;6.494;2022-08-07T02:47:59;24.60;39.70
46309;DHT22;32037;50.820;6.494;2022-08-07T02:50:31;24.60;39.90
46309;DHT22;32037;50.820;6.494;2022-08-07T02:53:06;24.60;39.80
46309;DHT22;32037;50.820;6.494;2022-08-07T02:55:38;24.60;39.70
46309;DHT22;32037;50.820;6.494;2022-08-07T02:58:32;24.60;39.80
46309;DHT22;32037;50.820;6.494;2022-08-07T03:01:03;24.60;39.80
46309;DHT22;32037;50.820;6.494;2022-08-07T03:03:42;24.60;39.90
46309;DHT22;32037;50.820;6.494;2022-08-07T03:06:22;24.50;39.70
46309;DHT22;32037;50.820;6.494;2022-08-07T03:09:00;24.50;39.80
46309;DHT22;32037;50.820;6.494;2022-08-07T03:11:29;24.50;39.80
46309;DHT22;32037;50.820;6.494;2022-08-07T03:14:08;24.50;39.90
46309;DHT22;32037;50.820;6.494;2022-08-07T03:16:37;24.50;39.90
46309;DHT22;32037;50.820;6.494;2022-08-07T03:19:08;24.50;40.00
46309;DHT22;32037;50.820;6.494;2022-08-07T03:21:40;24.50;40.00
46309;DHT22;32037;50.820;6.494;2022-08-07T03:24:17;24.50;40.00
46309;DHT22;32037;50.820;6.494;2022-08-07T03:26:54;24.50;40.00
46309;DHT22;32037;50.820;6.494;2022-08-07T03:29:37;24.50;40.00
46309;DHT22;32037;50.820;6.494;2022-08-07T03:32:21;24.50;39.90
46309;DHT22;32037;50.820;6.494;2022-08-07T03:34:53;24.50;40.00
46309;DHT22;32037;50.820;6.494;2022-08-07T03:37:44;24.50;40.10
46309;DHT22;32037;50.820;6.494;2022-08-07T03:40:27;24.50;40.10
46309;DHT22;32037;50.820;6.494;2022-08-07T03:43:04;24.50;40.20
46309;DHT22;32037;50.820;6.494;2022-08-07T03:45:44;24.50;40.10
46309;DHT22;32037;50.820;6.494;2022-08-07T03:48:17;24.40;40.10
46309;DHT22;32037;50.820;6.494;2022-08-07T03:50:45;24.50;40.20
46309;DHT22;32037;50.820;6.494;2022-08-07T03:53:28;24.40;40.00
46309;DHT22;32037;50.820;6.494;2022-08-07T03:56:19;24.40;40.00
46309;DHT22;32037;50.820;6.494;2022-08-07T03:59:05;24.40;40.10
46309;DHT22;32037;50.820;6.494;2022-08-07T04:01:44;24.40;40.20
46309;DHT22;32037;50.820;6.494;2022-08-07T04:04:16;24.40;40.20
46309;DHT22;32037;50.820;6.494;2022-08-07T04:06:51;24.40;40.20
46309;DHT22;32037;50.820;6.494;2022-08-07T04:09:21;24.40;40.20
46309;DHT22;32037;50.820;6.494;2022-08-07T04:11:55;24.40;40.20
46309;DHT22;32037;50.820;6.494;2022-08-07T04:14:45;24.40;40.10
46309;DHT22;32037;50.820;6.494;2022-08-07T04:17:18;24.40;40.20
46309;DHT22;32037;50.820;6.494;2022-08-07T04:19:51;24.30;40.00
46309;DHT22;32037;50.820;6.494;2022-08-07T04:22:24;24.30;40.10
46309;DHT22;32037;50.820;6.494;2022-08-07T04:25:02;24.30;40.10
46309;DHT22;32037;50.820;6.494;2022-08-07T04:27:39;24.30;40.20
46309;DHT22;32037;50.820;6.494;2022-08-07T04:30:15;24.30;40.10
46309;DHT22;32037;50.820;6.494;2022-08-07T04:33:19;24.30;40.00
46309;DHT22;32037;50.820;6.494;2022-08-07T04:35:50;24.30;40.20
46309;DHT22;32037;50.820;6.494;2022-08-07T04:38:24;24.30;40.20
46309;DHT22;32037;50.820;6.494;2022-08-07T04:40:55;24.30;40.20
46309;DHT22;32037;50.820;6.494;2022-08-07T04:43:33;24.30;40.10
46309;DHT22;32037;50.820;6.494;2022-08-07T04:46:32;24.30;40.10
46309;DHT22;32037;50.820;6.494;2022-08-07T04:49:34;24.30;40.20
46309;DHT22;32037;50.820;6.494;2022-08-07T04:52:13;24.30;40.20
46309;DHT22;32037;50.820;6.494;2022-08-07T04:54:51;24.30;40.20
46309;DHT22;32037;50.820;6.494;2022-08-07T04:57:28;24.30;40.20
46309;DHT22;32037;50.820;6.494;2022-08-07T05:00:22;24.30;40.40
46309;DHT22;32037;50.820;6.494;2022-08-07T05:03:04;24.20;40.30
46309;DHT22;32037;50.820;6.494;2022-08-07T05:06:04;24.20;40.20
46309;DHT22;32037;50.820;6.494;2022-08-07T05:08:51;24.30;40.30
46309;DHT22;32037;50.820;6.494;2022-08-07T05:11:30;24.20;40.20
46309;DHT22;32037;50.820;6.494;2022-08-07T05:14:22;24.30;40.20
46309;DHT22;32037;50.820;6.494;2022-08-07T05:17:15;24.20;40.30
46309;DHT22;32037;50.820;6.494;2022-08-07T05:20:07;24.20;40.20
46309;DHT22;32037;50.820;6.494;2022-08-07T05:22:40;24.20;40.40
46309;DHT22;32037;50.820;6.494;2022-08-07T05:25:10;24.20;40.30
46309;DHT22;32037;50.820;6.494;2022-08-07T05:28:00;24.10;40.30
46309;DHT22;32037;50.820;6.494;2022-08-07T05:30:47;24.10;40.30
46309;DHT22;32037;50.820;6.494;2022-08-07T05:33:19;24.10;40.30
46309;DHT22;32037;50.820;6.494;2022-08-07T05:35:49;24.10;40.20
46309;DHT22;32037;50.820;6.494;2022-08-07T05:38:20;24.20;40.50
46309;DHT22;32037;50.820;6.494;2022-08-07T05:41:09;24.10;40.40
46309;DHT22;32037;50.820;6.494;2022-08-07T05:43:46;24.10;41.60
46309;DHT22;32037;50.820;6.494;2022-08-07T05:46:36;24.10;40.40
46309;DHT22;32037;50.820;6.494;2022-08-07T05:49:07;24.10;40.50
46309;DHT22;32037;50.820;6.494;2022-08-07T05:51:41;24.10;40.40
46309;DHT22;32037;50.820;6.494;2022-08-07T05:54:15;24.10;40.50
46309;DHT22;32037;50.820;6.494;2022-08-07T05:57:05;24.10;40.50
46309;DHT22;32037;50.820;6.494;2022-08-07T05:59:37;24.10;40.50
46309;DHT22;32037;50.820;6.494;2022-08-07T06:02:28;24.10;40.60
46309;DHT22;32037;50.820;6.494;2022-08-07T06:05:04;24.10;40.60
46309;DHT22;32037;50.820;6.494;2022-08-07T06:07:33;24.10;40.50
46309;DHT22;32037;50.820;6.494;2022-08-07T06:10:25;24.10;40.50
46309;DHT22;32037;50.820;6.494;2022-08-07T06:12:54;24.10;40.60
46309;DHT22;32037;50.820;6.494;2022-08-07T06:15:24;24.10;40.80
46309;DHT22;32037;50.820;6.494;2022-08-07T06:18:11;24.10;40.60
46309;DHT22;32037;50.820;6.494;2022-08-07T06:20:43;24.10;40.60
46309;DHT22;32037;50.820;6.494;2022-08-07T06:23:18;24.10;40.70
46309;DHT22;32037;50.820;6.494;2022-08-07T06:26:10;24.10;40.60
46309;DHT22;32037;50.820;6.494;2022-08-07T06:28:48;24.00;40.50
46309;DHT22;32037;50.820;6.494;2022-08-07T06:31:20;24.10;40.70
46309;DHT22;32037;50.820;6.494;2022-08-07T06:34:05;24.00;40.70
46309;DHT22;32037;50.820;6.494;2022-08-07T06:36:34;24.00;40.60
46309;DHT22;32037;50.820;6.494;2022-08-07T06:39:05;24.00;40.60
46309;DHT22;32037;50.820;6.494;2022-08-07T06:41:59;24.00;41.80
46309;DHT22;32037;50.820;6.494;2022-08-07T06:44:51;24.00;40.80
46309;DHT22;32037;50.820;6.494;2022-08-07T06:47:21;24.00;40.80
46309;DHT22;32037;50.820;6.494;2022-08-07T06:49:53;24.10;40.60
46309;DHT22;32037;50.820;6.494;2022-08-07T06:52:33;24.10;40.10
46309;DHT22;32037;50.820;6.494;2022-08-07T06:55:10;24.10;39.70
46309;DHT22;32037;50.820;6.494;2022-08-07T06:58:03;24.20;38.90
46309;DHT22;32037;50.820;6.494;2022-08-07T07:00:45;24.20;38.80
46309;DHT22;32037;50.820;6.494;2022-08-07T07:03:19;24.20;38.70
46309;DHT22;32037;50.820;6.494;2022-08-07T07:06:06;24.30;38.80
46309;DHT22;32037;50.820;6.494;2022-08-07T07:08:37;24.30;38.80
46309;DHT22;32037;50.820;6.494;2022-08-07T07:11:13;24.30;38.80
46309;DHT22;32037;50.820;6.494;2022-08-07T07:14:03;24.30;38.90
46309;DHT22;32037;50.820;6.494;2022-08-07T07:16:37;24.30;38.80
46309;DHT22;32037;50.820;6.494;2022-08-07T07:19:24;24.30;38.80
46309;DHT22;32037;50.820;6.494;2022-08-07T07:22:14;24.30;38.90
46309;DHT22;32037;50.820;6.494;2022-08-07T07:25:04;24.30;38.40
46309;DHT22;32037;50.820;6.494;2022-08-07T07:27:56;24.30;38.30
46309;DHT22;32037;50.820;6.494;2022-08-07T07:30:34;24.30;38.10
46309;DHT22;32037;50.820;6.494;2022-08-07T07:33:07;24.20;38.10
46309;DHT22;32037;50.820;6.494;2022-08-07T07:35:40;24.20;38.00
46309;DHT22;32037;50.820;6.494;2022-08-07T07:38:30;24.20;37.90
46309;DHT22;32037;50.820;6.494;2022-08-07T07:41:03;24.20;37.70
46309;DHT22;32037;50.820;6.494;2022-08-07T07:43:38;24.20;37.80
46309;DHT22;32037;50.820;6.494;2022-08-07T07:46:30;24.20;38.00
46309;DHT22;32037;50.820;6.494;2022-08-07T07:49:19;24.20;37.80
46309;DHT22;32037;50.820;6.494;2022-08-07T07:52:08;24.20;37.60
46309;DHT22;32037;50.820;6.494;2022-08-07T07:54:39;24.20;37.90
46309;DHT22;32037;50.820;6.494;2022-08-07T07:57:19;24.20;38.00
46309;DHT22;32037;50.820;6.494;2022-08-07T08:00:10;24.20;37.60
46309;DHT22;32037;50.820;6.494;2022-08-07T08:03:00;24.10;37.60
46309;DHT22;32037;50.820;6.494;2022-08-07T08:05:35;24.10;37.70
46309;DHT22;32037;50.820;6.494;2022-08-07T08:08:24;24.10;37.50
46309;DHT22;32037;50.820;6.494;2022-08-07T08:11:03;24.10;37.00
46309;DHT22;32037;50.820;6.494;2022-08-07T08:13:36;23.90;37.00
46309;DHT22;32037;50.820;6.494;2022-08-07T08:16:25;23.90;37.30
46309;DHT22;32037;50.820;6.494;2022-08-07T08:18:59;23.90;37.80
46309;DHT22;32037;50.820;6.494;2022-08-07T08:21:46;23.80;38.10
46309;DHT22;32037;50.820;6.494;2022-08-07T08:24:36;23.80;38.30
46309;DHT22;32037;50.820;6.494;2022-08-07T08:27:43;23.80;38.30
46309;DHT22;32037;50.820;6.494;2022-08-07T08:30:23;23.80;38.40
46309;DHT22;32037;50.820;6.494;2022-08-07T08:32:54;23.80;38.30
46309;DHT22;32037;50.820;6.494;2022-08-07T08:35:27;23.80;38.30
46309;DHT22;32037;50.820;6.494;2022-08-07T08:38:14;23.80;38.30
46309;DHT22;32037;50.820;6.494;2022-08-07T08:40:48;23.80;38.30
46309;DHT22;32037;50.820;6.494;2022-08-07T08:43:26;23.80;38.40
46309;DHT22;32037;50.820;6.494;2022-08-07T08:46:11;23.80;38.40
46309;DHT22;32037;50.820;6.494;2022-08-07T08:48:49;23.80;38.40
46309;DHT22;32037;50.820;6.494;2022-08-07T08:51:26;23.80;38.40
46309;DHT22;32037;50.820;6.494;2022-08-07T08:54:21;23.80;38.30
46309;DHT22;32037;50.820;6.494;2022-08-07T08:56:52;23.80;38.50
46309;DHT22;32037;50.820;6.494;2022-08-07T08:59:26;23.80;38.60
46309;DHT22;32037;50.820;6.494;2022-08-07T09:02:12;23.80;38.40
46309;DHT22;32037;50.820;6.494;2022-08-07T09:05:11;23.80;38.60
46309;DHT22;32037;50.820;6.494;2022-08-07T09:07:46;23.80;38.60
46309;DHT22;32037;50.820;6.494;2022-08-07T09:10:27;23.80;38.70
46309;DHT22;32037;50.820;6.494;2022-08-07T09:13:05;23.80;38.70
46309;DHT22;32037;50.820;6.494;2022-08-07T09:15:46;23.80;38.90
46309;DHT22;32037;50.820;6.494;2022-08-07T09:19:14;23.80;38.90
46309;DHT22;32037;50.820;6.494;2022-08-07T09:22:14;23.80;38.90
46309;DHT22;32037;50.820;6.494;2022-08-07T09:25:10;23.80;39.00
46309;DHT22;32037;50.820;6.494;2022-08-07T09:27:51;23.80;39.00
46309;DHT22;32037;50.820;6.494;2022-08-07T09:30:33;23.80;39.00
46309;DHT22;32037;50.820;6.494;2022-08-07T09:33:14;23.80;39.10
46309;DHT22;32037;50.820;6.494;2022-08-07T09:36:12;23.80;39.10
46309;DHT22;32037;50.820;6.494;2022-08-07T09:38:52;23.80;39.20
46309;DHT22;32037;50.820;6.494;2022-08-07T09:41:33;23.80;39.10
46309;DHT22;32037;50.820;6.494;2022-08-07T09:44:30;23.80;39.10
46309;DHT22;32037;50.820;6.494;2022-08-07T09:47:36;23.80;39.10
46309;DHT22;32037;50.820;6.494;2022-08-07T09:50:35;23.80;39.10
46309;DHT22;32037;50.820;6.494;2022-08-07T09:53:08;23.80;39.10
46309;DHT22;32037;50.820;6.494;2022-08-07T09:55:53;23.70;39.10
46309;DHT22;32037;50.820;6.494;2022-08-07T09:58:56;23.80;39.40
46309;DHT22;32037;50.820;6.494;2022-08-07T10:01:53;23.80;39.20
46309;DHT22;32037;50.820;6.494;2022-08-07T10:04:32;23.80;39.20
46309;DHT22;32037;50.820;6.494;2022-08-07T10:07:25;23.70;39.10
46309;DHT22;32037;50.820;6.494;2022-08-07T10:10:17;23.80;39.20
46309;DHT22;32037;50.820;6.494;2022-08-07T10:16:32;23.70;39.00
46309;DHT22;32037;50.820;6.494;2022-08-07T10:19:33;23.80;39.10
46309;DHT22;32037;50.820;6.494;2022-08-07T10:22:26;23.70;38.90
46309;DHT22;32037;50.820;6.494;2022-08-07T10:25:12;23.80;38.90
46309;DHT22;32037;50.820;6.494;2022-08-07T10:28:04;23.80;39.10
46309;DHT22;32037;50.820;6.494;2022-08-07T10:30:50;23.70;39.00
46309;DHT22;32037;50.820;6.494;2022-08-07T10:33:42;23.70;39.00
46309;DHT22;32037;50.820;6.494;2022-08-07T10:36:44;23.70;39.00
46309;DHT22;32037;50.820;6.494;2022-08-07T10:39:28;23.80;38.90
46309;DHT22;32037;50.820;6.494;2022-08-07T10:42:27;23.70;38.90
46309;DHT22;32037;50.820;6.494;2022-08-07T10:45:12;23.80;39.10
46309;DHT22;32037;50.820;6.494;2022-08-07T10:47:47;23.70;38.30
46309;DHT22;32037;50.820;6.494;2022-08-07T10:50:28;23.80;38.50
46309;DHT22;32037;50.820;6.494;2022-08-07T10:53:02;23.70;38.70
46309;DHT22;32037;50.820;6.494;2022-08-07T10:55:46;23.70;38.50
46309;DHT22;32037;50.820;6.494;2022-08-07T10:58:30;23.80;38.70
46309;DHT22;32037;50.820;6.494;2022-08-07T11:01:20;23.80;38.30
46309;DHT22;32037;50.820;6.494;2022-08-07T11:04:21;23.70;38.70
46309;DHT22;32037;50.820;6.494;2022-08-07T11:07:03;23.80;38.40
46309;DHT22;32037;50.820;6.494;2022-08-07T11:09:55;23.70;38.30
46309;DHT22;32037;50.820;6.494;2022-08-07T11:12:41;23.80;38.30
46309;DHT22;32037;50.820;6.494;2022-08-07T11:15:20;23.80;38.60
46309;DHT22;32037;50.820;6.494;2022-08-07T11:18:02;23.70;38.40
46309;DHT22;32037;50.820;6.494;2022-08-07T11:20:38;23.70;38.40
46309;DHT22;32037;50.820;6.494;2022-08-07T11:23:17;23.80;38.30
46309;DHT22;32037;50.820;6.494;2022-08-07T11:26:10;23.80;38.30
46309;DHT22;32037;50.820;6.494;2022-08-07T11:28:45;23.80;38.30
46309;DHT22;32037;50.820;6.494;2022-08-07T11:31:27;23.80;38.30
46309;DHT22;32037;50.820;6.494;2022-08-07T11:34:08;23.80;38.30
46309;DHT22;32037;50.820;6.494;2022-08-07T11:36:49;23.80;38.40
46309;DHT22;32037;50.820;6.494;2022-08-07T11:39:31;23.80;38.30
46309;DHT22;32037;50.820;6.494;2022-08-07T11:42:29;23.80;38.30
46309;DHT22;32037;50.820;6.494;2022-08-07T11:45:12;23.80;38.30
46309;DHT22;32037;50.820;6.494;2022-08-07T11:48:04;23.80;38.40
46309;DHT22;32037;50.820;6.494;2022-08-07T11:51:08;23.80;38.30
46309;DHT22;32037;50.820;6.494;2022-08-07T11:54:16;23.80;38.40
46309;DHT22;32037;50.820;6.494;2022-08-07T11:57:02;23.80;38.30
46309;DHT22;32037;50.820;6.494;2022-08-07T12:03:10;23.80;38.30
46309;DHT22;32037;50.820;6.494;2022-08-07T12:09:08;23.80;38.40
46309;DHT22;32037;50.820;6.494;2022-08-07T12:11:56;23.80;38.30
46309;DHT22;32037;50.820;6.494;2022-08-07T12:14:48;23.80;38.30
46309;DHT22;32037;50.820;6.494;2022-08-07T12:17:32;23.80;38.30
46309;DHT22;32037;50.820;6.494;2022-08-07T12:20:09;23.80;38.30
46309;DHT22;32037;50.820;6.494;2022-08-07T12:23:18;23.80;38.30
46309;DHT22;32037;50.820;6.494;2022-08-07T12:26:13;23.90;38.40
46309;DHT22;32037;50.820;6.494;2022-08-07T12:29:04;23.90;38.50
46309;DHT22;32037;50.820;6.494;2022-08-07T12:31:38;23.90;38.50
46309;DHT22;32037;50.820;6.494;2022-08-07T12:34:30;24.00;38.60
46309;DHT22;32037;50.820;6.494;2022-08-07T12:37:00;24.00;37.90
46309;DHT22;32037;50.820;6.494;2022-08-07T12:39:45;24.00;37.60
46309;DHT22;32037;50.820;6.494;2022-08-07T12:42:23;24.00;38.60
46309;DHT22;32037;50.820;6.494;2022-08-07T12:44:57;24.00;37.30
46309;DHT22;32037;50.820;6.494;2022-08-07T12:47:39;24.00;37.20
46309;DHT22;32037;50.820;6.494;2022-08-07T12:50:14;24.00;36.70
46309;DHT22;32037;50.820;6.494;2022-08-07T12:53:10;24.10;36.80
46309;DHT22;32037;50.820;6.494;2022-08-07T12:55:49;24.10;37.00
46309;DHT22;32037;50.820;6.494;2022-08-07T12:58:32;24.10;37.10
46309;DHT22;32037;50.820;6.494;2022-08-07T13:01:16;24.10;37.00
46309;DHT22;32037;50.820;6.494;2022-08-07T13:03:57;24.10;36.60
46309;DHT22;32037;50.820;6.494;2022-08-07T13:06:45;24.10;36.40
46309;DHT22;32037;50.820;6.494;2022-08-07T13:09:41;24.10;36.10
46309;DHT22;32037;50.820;6.494;2022-08-07T13:12:43;24.10;36.40
46309;DHT22;32037;50.820;6.494;2022-08-07T13:15:25;24.20;36.20
46309;DHT22;32037;50.820;6.494;2022-08-07T13:18:12;24.10;35.70
46309;DHT22;32037;50.820;6.494;2022-08-07T13:21:01;24.20;35.80
46309;DHT22;32037;50.820;6.494;2022-08-07T13:23:38;24.20;35.80
46309;DHT22;32037;50.820;6.494;2022-08-07T13:26:34;24.20;35.80
46309;DHT22;32037;50.820;6.494;2022-08-07T13:29:11;24.20;35.80
46309;DHT22;32037;50.820;6.494;2022-08-07T13:31:45;24.30;35.90
46309;DHT22;32037;50.820;6.494;2022-08-07T13:34:36;24.30;35.90
46309;DHT22;32037;50.820;6.494;2022-08-07T13:37:15;24.30;35.70
46309;DHT22;32037;50.820;6.494;2022-08-07T13:39:58;24.30;35.70
46309;DHT22;32037;50.820;6.494;2022-08-07T13:42:50;24.30;35.70
46309;DHT22;32037;50.820;6.494;2022-08-07T13:45:20;24.30;35.40
46309;DHT22;32037;50.820;6.494;2022-08-07T13:48:10;24.30;35.20
46309;DHT22;32037;50.820;6.494;2022-08-07T13:51:00;24.30;35.50
46309;DHT22;32037;50.820;6.494;2022-08-07T13:53:52;24.30;35.30
46309;DHT22;32037;50.820;6.494;2022-08-07T13:56:27;24.40;35.30
46309;DHT22;32037;50.820;6.494;2022-08-07T13:59:12;24.40;35.40
46309;DHT22;32037;50.820;6.494;2022-08-07T14:01:47;24.40;35.10
46309;DHT22;32037;50.820;6.494;2022-08-07T14:04:30;24.40;35.10
46309;DHT22;32037;50.820;6.494;2022-08-07T14:07:06;24.40;34.80
46309;DHT22;32037;50.820;6.494;2022-08-07T14:09:37;24.40;35.00
46309;DHT22;32037;50.820;6.494;2022-08-07T14:12:32;24.40;34.70
46309;DHT22;32037;50.820;6.494;2022-08-07T14:15:17;24.40;34.50
46309;DHT22;32037;50.820;6.494;2022-08-07T14:17:51;24.40;34.80
46309;DHT22;32037;50.820;6.494;2022-08-07T14:20:45;24.50;34.80
46309;DHT22;32037;50.820;6.494;2022-08-07T14:23:25;24.50;34.60
46309;DHT22;32037;50.820;6.494;2022-08-07T14:26:20;24.50;34.30
46309;DHT22;32037;50.820;6.494;2022-08-07T14:29:00;24.50;34.00
46309;DHT22;32037;50.820;6.494;2022-08-07T14:31:49;24.50;33.80
46309;DHT22;32037;50.820;6.494;2022-08-07T14:34:25;24.50;33.70
46309;DHT22;32037;50.820;6.494;2022-08-07T14:36:58;24.50;33.80
46309;DHT22;32037;50.820;6.494;2022-08-07T14:39:31;24.50;33.90
46309;DHT22;32037;50.820;6.494;2022-08-07T14:42:26;24.50;34.10
46309;DHT22;32037;50.820;6.494;2022-08-07T14:45:02;24.50;33.90
46309;DHT22;32037;50.820;6.494;2022-08-07T14:47:50;24.60;34.00
46309;DHT22;32037;50.820;6.494;2022-08-07T14:50:41;24.60;34.30
46309;DHT22;32037;50.820;6.494;2022-08-07T14:53:11;24.60;34.30
46309;DHT22;32037;50.820;6.494;2022-08-07T14:55:42;24.60;34.20
46309;DHT22;32037;50.820;6.494;2022-08-07T14:58:27;24.60;34.10
46309;DHT22;32037;50.820;6.494;2022-08-07T15:00:59;24.60;34.00
46309;DHT22;32037;50.820;6.494;2022-08-07T15:03:48;24.60;33.90
46309;DHT22;32037;50.820;6.494;2022-08-07T15:06:38;24.60;33.10
46309;DHT22;32037;50.820;6.494;2022-08-07T15:09:27;24.60;33.50
46309;DHT22;32037;50.820;6.494;2022-08-07T15:12:22;24.60;33.50
46309;DHT22;32037;50.820;6.494;2022-08-07T15:15:02;24.60;33.60
46309;DHT22;32037;50.820;6.494;2022-08-07T15:17:39;24.60;33.70
46309;DHT22;32037;50.820;6.494;2022-08-07T15:20:25;24.70;34.10
46309;DHT22;32037;50.820;6.494;2022-08-07T15:23:01;24.70;34.00
46309;DHT22;32037;50.820;6.494;2022-08-07T15:25:58;24.70;33.70
46309;DHT22;32037;50.820;6.494;2022-08-07T15:28:28;24.70;34.00
46309;DHT22;32037;50.820;6.494;2022-08-07T15:31:22;24.70;33.70
46309;DHT22;32037;50.820;6.494;2022-08-07T15:34:10;24.70;33.80
46309;DHT22;32037;50.820;6.494;2022-08-07T15:36:44;24.70;33.10
46309;DHT22;32037;50.820;6.494;2022-08-07T15:39:38;24.70;32.50
46309;DHT22;32037;50.820;6.494;2022-08-07T15:42:54;24.70;32.70
46309;DHT22;32037;50.820;6.494;2022-08-07T15:45:35;24.70;33.20
46309;DHT22;32037;50.820;6.494;2022-08-07T15:48:26;24.70;33.50
46309;DHT22;32037;50.820;6.494;2022-08-07T15:51:04;24.80;33.70
46309;DHT22;32037;50.820;6.494;2022-08-07T15:53:38;24.80;33.50
46309;DHT22;32037;50.820;6.494;2022-08-07T15:56:21;24.80;33.00
46309;DHT22;32037;50.820;6.494;2022-08-07T15:58:52;24.80;32.90
46309;DHT22;32037;50.820;6.494;2022-08-07T16:01:31;24.80;33.00
46309;DHT22;32037;50.820;6.494;2022-08-07T16:04:07;24.80;33.20
46309;DHT22;32037;50.820;6.494;2022-08-07T16:06:47;24.80;33.20
46309;DHT22;32037;50.820;6.494;2022-08-07T16:09:19;24.80;32.90
46309;DHT22;32037;50.820;6.494;2022-08-07T16:12:02;24.80;32.60
46309;DHT22;32037;50.820;6.494;2022-08-07T16:14:58;24.80;33.20
46309;DHT22;32037;50.820;6.494;2022-08-07T16:17:46;24.90;33.30
46309;DHT22;32037;50.820;6.494;2022-08-07T16:20:41;24.90;33.40
46309;DHT22;32037;50.820;6.494;2022-08-07T16:23:32;24.90;32.90
46309;DHT22;32037;50.820;6.494;2022-08-07T16:26:38;24.90;32.90
46309;DHT22;32037;50.820;6.494;2022-08-07T16:29:46;24.90;33.20
46309;DHT22;32037;50.820;6.494;2022-08-07T16:32:42;24.90;33.20
46309;DHT22;32037;50.820;6.494;2022-08-07T16:35:22;24.90;33.20
46309;DHT22;32037;50.820;6.494;2022-08-07T16:38:29;24.90;32.70
46309;DHT22;32037;50.820;6.494;2022-08-07T16:41:38;24.90;32.70
46309;DHT22;32037;50.820;6.494;2022-08-07T16:44:36;24.90;32.50
46309;DHT22;32037;50.820;6.494;2022-08-07T16:50:48;24.90;33.00
46309;DHT22;32037;50.820;6.494;2022-08-07T16:53:58;25.00;33.30
46309;DHT22;32037;50.820;6.494;2022-08-07T16:56:49;25.00;33.10
46309;DHT22;32037;50.820;6.494;2022-08-07T16:59:31;25.00;33.10
46309;DHT22;32037;50.820;6.494;2022-08-07T17:02:38;25.00;33.10
46309;DHT22;32037;50.820;6.494;2022-08-07T17:05:37;25.00;33.40
46309;DHT22;32037;50.820;6.494;2022-08-07T17:08:35;25.00;33.50
46309;DHT22;32037;50.820;6.494;2022-08-07T17:11:28;25.00;33.00
46309;DHT22;32037;50.820;6.494;2022-08-07T17:14:24;25.00;34.40
46309;DHT22;32037;50.820;6.494;2022-08-07T17:17:03;25.00;33.20
46309;DHT22;32037;50.820;6.494;2022-08-07T17:19:36;25.00;33.20